createdAt,value
2023-03-30T00:00:22.922Z,2.28
2023-03-30T00:05:27.764Z,2.25
2023-03-30T00:10:31.523Z,1.98
2023-03-30T00:15:36.606Z,2.33
2023-03-30T00:20:43.142Z,2.03
2023-03-30T00:25:47.129Z,2.33
2023-03-30T00:30:53.595Z,1.90
2023-03-30T00:35:58.866Z,1.80
2023-03-30T00:41:02.926Z,2.42
2023-03-30T00:46:08.435Z,2.20
2023-03-30T00:51:14.024Z,1.85
2023-03-30T00:56:20.864Z,1.77
2023-03-30T01:01:29.101Z,2.25
2023-03-30T01:06:35.281Z,1.65
2023-03-30T01:11:39.576Z,1.40
2023-03-30T01:16:52.783Z,1.62
2023-03-30T01:22:25.429Z,1.48
2023-03-30T01:27:55.511Z,1.55
2023-03-30T01:33:45.357Z,1.42
2023-03-30T01:39:26.030Z,1.62
2023-03-30T01:44:42.945Z,1.42
2023-03-30T01:49:56.414Z,1.55
2023-03-30T01:55:05.204Z,1.83
2023-03-30T02:00:15.083Z,1.55
2023-03-30T02:05:22.363Z,1.40
2023-03-30T02:10:30.161Z,1.92
2023-03-30T02:15:40.880Z,1.60
2023-03-30T02:20:44.710Z,1.30
2023-03-30T02:25:48.400Z,1.60
2023-03-30T02:30:55.635Z,2.22
2023-03-30T02:36:20.323Z,2.08
2023-03-30T02:41:37.742Z,1.70
2023-03-30T02:47:03.645Z,1.20
2023-03-30T02:52:15.906Z,1.08
2023-03-30T02:57:31.175Z,1.60
2023-03-30T03:02:43.109Z,1.45
2023-03-30T03:07:48.187Z,1.30
2023-03-30T03:12:52.224Z,1.60
2023-03-30T03:18:00.948Z,1.40
2023-03-30T03:23:05.025Z,1.30
2023-03-30T03:28:11.760Z,1.45
2023-03-30T03:33:17.160Z,1.73
2023-03-30T03:38:22.856Z,1.90
2023-03-30T03:43:29.686Z,1.80
2023-03-30T03:48:34.783Z,2.20
2023-03-30T03:53:38.721Z,1.83
2023-03-30T03:58:42.841Z,2.25
2023-03-30T04:03:47.915Z,2.37
2023-03-30T04:08:53.073Z,2.05
2023-03-30T04:13:57.363Z,2.65
2023-03-30T04:19:04.689Z,2.45
2023-03-30T04:24:12.184Z,2.87
2023-03-30T04:29:21.032Z,2.15
2023-03-30T04:34:31.035Z,2.20
2023-03-30T04:39:35.616Z,3.47
2023-03-30T04:44:39.876Z,2.97
2023-03-30T04:49:50.464Z,2.33
2023-03-30T04:54:56.002Z,2.20
2023-03-30T05:00:01.491Z,2.53
2023-03-30T05:05:11.125Z,3.10
2023-03-30T05:10:17.253Z,2.70
2023-03-30T05:15:21.720Z,3.12
2023-03-30T05:20:27.489Z,3.20
2023-03-30T05:25:31.926Z,3.12
2023-03-30T05:30:35.978Z,3.22
2023-03-30T05:35:48.816Z,4.05
2023-03-30T05:40:53.746Z,3.12
2023-03-30T05:45:58.176Z,2.33
2023-03-30T05:51:04.129Z,2.60
2023-03-30T05:56:10.439Z,3.08
2023-03-30T06:01:14.746Z,2.58
2023-03-30T06:06:20.906Z,2.62
2023-03-30T06:11:26.090Z,2.58
2023-03-30T06:16:31.908Z,2.85
2023-03-30T06:21:37.697Z,3.85
2023-03-30T06:26:43.577Z,3.72
2023-03-30T06:31:47.985Z,4.55
2023-03-30T06:36:56.085Z,3.40
2023-03-30T06:42:00.852Z,3.53
2023-03-30T06:47:08.183Z,3.47
2023-03-30T06:52:14.332Z,3.28
2023-03-30T06:57:18.129Z,3.10
2023-03-30T07:02:22.019Z,2.95
2023-03-30T07:07:29.440Z,3.10
2023-03-30T07:12:33.373Z,3.28
2023-03-30T07:17:38.780Z,3.08
2023-03-30T07:22:44.146Z,3.10
2023-03-30T07:27:48.815Z,3.12
2023-03-30T07:32:54.334Z,2.92
2023-03-30T07:38:03.789Z,3.22
2023-03-30T07:43:08.616Z,4.50
2023-03-30T07:48:12.762Z,3.37
2023-03-30T07:53:18.041Z,4.10
2023-03-30T07:58:23.517Z,3.83
2023-03-30T08:03:27.764Z,3.92
2023-03-30T08:08:33.539Z,3.70
2023-03-30T08:13:38.278Z,3.85
2023-03-30T08:18:42.453Z,3.80
2023-03-30T08:23:47.609Z,4.10
2023-03-30T08:28:51.396Z,3.90
2023-03-30T08:33:55.088Z,3.40
2023-03-30T08:39:00.290Z,3.30
2023-03-30T08:44:16.014Z,2.75
2023-03-30T08:49:21.973Z,3.15
2023-03-30T08:54:29.444Z,3.72
2023-03-30T08:59:42.016Z,3.00
2023-03-30T09:04:57.688Z,4.43
2023-03-30T09:10:02.926Z,4.15
2023-03-30T09:15:12.812Z,3.40
2023-03-30T09:20:22.039Z,3.42
2023-03-30T09:25:32.563Z,3.65
2023-03-30T09:30:41.630Z,3.95
2023-03-30T09:36:07.188Z,4.37
2023-03-30T09:41:25.866Z,3.83
2023-03-30T09:46:29.756Z,4.72
2023-03-30T09:51:33.543Z,4.45
2023-03-30T09:56:45.132Z,3.70
2023-03-30T10:01:48.969Z,4.30
2023-03-30T10:06:53.362Z,4.57
2023-03-30T10:11:58.565Z,4.40
2023-03-30T10:17:03.767Z,4.55
2023-03-30T10:22:17.340Z,4.35
2023-03-30T10:27:29.426Z,4.37
2023-03-30T10:32:33.306Z,5.20
2023-03-30T10:37:39.691Z,3.85
2023-03-30T10:42:47.405Z,4.35
2023-03-30T10:48:04.945Z,3.87
2023-03-30T10:53:26.274Z,3.45
2023-03-30T10:58:49.186Z,4.25
2023-03-30T11:03:59.897Z,3.78
2023-03-30T11:09:15.702Z,2.92
2023-03-30T11:14:26.573Z,4.18
2023-03-30T11:19:35.037Z,3.40
2023-03-30T11:24:42.744Z,3.90
2023-03-30T11:29:53.008Z,4.07
2023-03-30T11:35:05.517Z,3.85
2023-03-30T11:40:17.403Z,2.45
2023-03-30T11:45:42.431Z,3.45
2023-03-30T11:51:00.695Z,3.12
2023-03-30T12:01:32.519Z,2.83
2023-03-30T12:06:40.438Z,3.42
2023-03-30T12:11:48.793Z,3.40
2023-03-30T12:16:58.765Z,3.42
2023-03-30T12:22:07.816Z,2.62
2023-03-30T12:27:11.995Z,3.40
2023-03-30T12:32:27.672Z,3.12
2023-03-30T12:37:35.664Z,3.47
2023-03-30T12:42:46.922Z,2.87
2023-03-30T12:48:26.293Z,4.03
2023-03-30T12:54:21.767Z,3.08
2023-03-30T12:59:44.601Z,3.25
2023-03-30T13:04:50.769Z,3.05
2023-03-30T13:09:57.808Z,3.62
2023-03-30T13:15:07.127Z,3.95
2023-03-30T13:20:29.316Z,3.22
2023-03-30T13:25:45.373Z,3.33
2023-03-30T13:30:49.256Z,3.05
2023-03-30T13:36:06.274Z,3.55
2023-03-30T13:41:28.219Z,3.00
2023-03-30T13:46:38.344Z,2.80
2023-03-30T13:51:44.229Z,2.97
2023-03-30T13:56:52.175Z,3.20
2023-03-30T14:01:59.449Z,2.95
2023-03-30T14:07:14.023Z,3.57
2023-03-30T14:12:17.952Z,2.50
2023-03-30T14:17:24.186Z,2.90
2023-03-30T14:22:29.584Z,2.70
2023-03-30T14:27:35.017Z,2.25
2023-03-30T14:32:38.833Z,2.40
2023-03-30T14:37:51.590Z,2.47
2023-03-30T14:42:55.934Z,1.92
2023-03-30T14:47:59.944Z,2.65
2023-03-30T14:53:05.143Z,2.53
2023-03-30T14:58:11.526Z,2.03
2023-03-30T15:03:30.405Z,2.25
2023-03-30T15:08:41.057Z,2.05
2023-03-30T15:13:48.570Z,2.67
2023-03-30T15:18:54.200Z,2.53
2023-03-30T15:24:00.526Z,2.15
2023-03-30T15:29:06.181Z,2.40
2023-03-30T15:34:16.917Z,2.12
2023-03-30T15:39:23.860Z,2.58
2023-03-30T15:44:27.569Z,2.08
2023-03-30T15:49:40.805Z,2.35
2023-03-30T15:54:50.620Z,2.45
2023-03-30T15:59:58.641Z,3.08
2023-03-30T16:05:03.338Z,2.28
2023-03-30T16:10:14.186Z,3.08
2023-03-30T16:15:20.689Z,8.50
2023-03-30T16:20:26.303Z,2.17
2023-03-30T16:25:44.098Z,2.15
2023-03-30T16:30:50.408Z,2.62
2023-03-30T16:35:54.253Z,2.90
2023-03-30T16:41:01.313Z,2.65
2023-03-30T16:46:05.086Z,2.53
2023-03-30T16:51:10.652Z,2.37
2023-03-30T16:56:18.246Z,2.22
2023-03-30T17:01:22.091Z,2.50
2023-03-30T17:06:25.935Z,2.70
2023-03-30T17:11:30.998Z,2.60
2023-03-30T17:16:35.048Z,2.55
2023-03-30T17:21:40.141Z,2.00
2023-03-30T17:26:45.541Z,2.50
2023-03-30T17:31:49.446Z,2.10
2023-03-30T17:36:53.418Z,2.53
2023-03-30T17:42:00.126Z,4.28
2023-03-30T17:47:03.985Z,2.40
2023-03-30T17:52:07.715Z,2.72
2023-03-30T17:57:13.554Z,2.58
2023-03-30T18:02:17.615Z,2.80
2023-03-30T18:07:21.350Z,2.42
2023-03-30T18:12:26.808Z,3.25
2023-03-30T18:17:30.627Z,2.10
2023-03-30T18:22:34.374Z,2.87
2023-03-30T18:27:40.213Z,3.15
2023-03-30T18:32:47.284Z,2.85
2023-03-30T18:37:53.956Z,3.77
2023-03-30T18:42:59.652Z,3.20
2023-03-30T18:48:03.630Z,3.20
2023-03-30T18:53:09.602Z,2.83
2023-03-30T18:58:16.771Z,3.50
2023-03-30T19:03:21.834Z,2.60
2023-03-30T19:08:28.763Z,3.15
2023-03-30T19:13:34.003Z,3.10
2023-03-30T19:18:37.715Z,4.05
2023-03-30T19:23:41.444Z,4.05
2023-03-30T19:28:46.613Z,3.87
2023-03-30T19:33:50.408Z,5.10
2023-03-30T19:38:55.239Z,3.70
2023-03-30T19:44:00.909Z,4.68
2023-03-30T19:49:04.620Z,3.28
2023-03-30T19:54:09.204Z,3.72
2023-03-30T19:59:14.293Z,3.62
2023-03-30T20:04:18.067Z,4.10
2023-03-30T20:09:22.195Z,3.15
2023-03-30T20:14:27.476Z,3.37
2023-03-30T20:19:32.021Z,3.85
2023-03-30T20:24:36.905Z,3.87
2023-03-30T20:29:41.953Z,3.75
2023-03-30T20:34:46.860Z,3.95
2023-03-30T20:39:50.901Z,3.97
2023-03-30T20:44:57.777Z,4.10
2023-03-30T20:50:01.547Z,3.92
2023-03-30T20:55:05.703Z,3.62
2023-03-30T21:00:12.614Z,3.10
2023-03-30T21:05:16.574Z,3.70
2023-03-30T21:10:20.372Z,3.40
2023-03-30T21:15:25.438Z,3.83
2023-03-30T21:20:29.133Z,3.97
2023-03-30T21:25:32.795Z,3.95
2023-03-30T21:30:37.796Z,3.10
2023-03-30T21:35:41.593Z,3.87
2023-03-30T21:40:59.014Z,3.37
2023-03-30T21:46:08.251Z,3.72
2023-03-30T21:51:14.171Z,3.33
2023-03-30T21:56:19.545Z,2.42
2023-03-30T22:01:24.991Z,2.78
2023-03-30T22:06:28.947Z,2.95
2023-03-30T22:11:32.814Z,2.47
2023-03-30T22:16:37.900Z,2.97
2023-03-30T22:21:41.934Z,2.62
2023-03-30T22:26:46.116Z,2.40
2023-03-30T22:31:55.707Z,2.80
2023-03-30T22:36:59.634Z,2.35
2023-03-30T22:42:03.335Z,2.92
2023-03-30T22:47:08.424Z,2.90
2023-03-30T22:52:12.133Z,3.08
2023-03-30T22:57:16.076Z,2.42
2023-03-30T23:02:21.246Z,2.90
2023-03-30T23:07:25.076Z,2.50
2023-03-30T23:12:29.427Z,2.80
2023-03-30T23:17:34.608Z,3.17
2023-03-30T23:22:38.999Z,3.53
2023-03-30T23:27:42.673Z,3.15
2023-03-30T23:32:47.768Z,3.00
2023-03-30T23:37:52.661Z,2.70
2023-03-30T23:42:56.859Z,3.03
2023-03-30T23:48:02.052Z,3.62
2023-03-30T23:53:07.026Z,3.10
2023-03-30T23:58:10.937Z,3.47
